createdAt,value
2022-08-08T00:00:53.363Z,25.40
2022-08-08T00:02:39.357Z,25.40
2022-08-08T00:05:44.167Z,25.40
2022-08-08T00:09:00.077Z,25.40
2022-08-08T00:12:07.392Z,25.40
2022-08-08T00:15:12.949Z,25.40
2022-08-08T00:18:21.026Z,25.40
2022-08-08T00:21:23.172Z,25.40
2022-08-08T00:24:24.080Z,25.40
2022-08-08T00:27:24.453Z,25.40
2022-08-08T00:30:31.685Z,25.40
2022-08-08T00:34:17.810Z,25.40
2022-08-08T00:36:54.900Z,25.40
2022-08-08T00:41:10.273Z,25.40
2022-08-08T00:43:45.939Z,25.40
2022-08-08T00:47:36.677Z,25.40
2022-08-08T00:51:38.957Z,25.40
2022-08-08T00:55:03.730Z,25.40
2022-08-08T00:58:30.724Z,25.40
2022-08-08T01:01:38.084Z,25.40
2022-08-08T01:05:11.391Z,25.40
2022-08-08T01:09:35.904Z,25.40
2022-08-08T01:13:00.133Z,25.40
2022-08-08T01:16:19.611Z,25.40
2022-08-08T01:20:02.232Z,25.40
2022-08-08T01:24:05.460Z,25.40
2022-08-08T01:27:24.048Z,25.40
2022-08-08T01:31:23.715Z,25.40
2022-08-08T01:35:11.276Z,25.40
2022-08-08T01:38:41.211Z,25.40
2022-08-08T01:41:48.246Z,25.40
2022-08-08T01:45:03.510Z,25.40
2022-08-08T01:48:23.599Z,25.40
2022-08-08T01:52:41.160Z,25.40
2022-08-08T01:55:19.035Z,25.40
2022-08-08T01:58:46.992Z,25.40
2022-08-08T02:02:02.961Z,25.30
2022-08-08T02:05:05.764Z,25.40
2022-08-08T02:08:09.603Z,25.40
2022-08-08T02:11:23.414Z,25.30
2022-08-08T02:14:28.246Z,25.30
2022-08-08T02:17:26.884Z,25.30
2022-08-08T02:21:02.637Z,25.30
2022-08-08T02:23:57.675Z,25.30
2022-08-08T02:27:00.807Z,25.30
2022-08-08T02:30:05.969Z,25.30
2022-08-08T02:33:11.012Z,25.30
2022-08-08T02:36:28.570Z,25.30
2022-08-08T02:39:58.489Z,25.30
2022-08-08T02:44:42.670Z,25.30
2022-08-08T02:47:47.057Z,25.30
2022-08-08T02:51:29.762Z,25.30
2022-08-08T02:55:02.227Z,25.30
2022-08-08T02:58:44.261Z,25.30
2022-08-08T03:02:30.254Z,25.30
2022-08-08T03:06:11.312Z,25.30
2022-08-08T03:10:06.996Z,25.30
2022-08-08T03:15:56.636Z,25.30
2022-08-08T03:16:59.236Z,25.30
2022-08-08T03:20:05.621Z,25.30
2022-08-08T03:23:04.646Z,25.30
2022-08-08T03:25:59.380Z,25.30
2022-08-08T03:28:57.550Z,25.30
2022-08-08T03:32:09.125Z,25.30
2022-08-08T03:35:05.429Z,25.30
2022-08-08T03:38:55.945Z,25.30
2022-08-08T03:42:04.190Z,25.20
2022-08-08T03:44:33.649Z,25.30
2022-08-08T03:47:45.278Z,25.30
2022-08-08T03:50:42.901Z,25.20
2022-08-08T03:53:47.661Z,25.20
2022-08-08T03:56:41.287Z,25.20
2022-08-08T04:00:02.801Z,25.20
2022-08-08T04:02:58.079Z,25.20
2022-08-08T04:05:51.819Z,25.30
2022-08-08T04:08:48.809Z,25.20
2022-08-08T04:11:48.494Z,25.20
2022-08-08T04:14:52.276Z,25.20
2022-08-08T04:17:58.013Z,25.20
2022-08-08T04:20:52.486Z,25.20
2022-08-08T04:24:12.024Z,25.20
2022-08-08T04:27:00.561Z,25.20
2022-08-08T04:30:00.682Z,25.20
2022-08-08T04:32:54.466Z,25.20
2022-08-08T04:35:51.063Z,25.20
2022-08-08T04:38:46.006Z,25.20
2022-08-08T04:41:40.599Z,25.20
2022-08-08T04:44:36.569Z,25.20
2022-08-08T04:47:31.555Z,25.20
2022-08-08T04:50:37.611Z,25.20
2022-08-08T04:54:27.325Z,25.20
2022-08-08T04:56:44.812Z,25.20
2022-08-08T04:59:42.482Z,25.20
2022-08-08T05:02:36.531Z,25.20
2022-08-08T05:05:44.605Z,25.20
2022-08-08T05:08:38.506Z,25.20
2022-08-08T05:11:39.583Z,25.20
2022-08-08T05:14:34.458Z,25.20
2022-08-08T05:17:28.617Z,25.20
2022-08-08T05:20:48.329Z,25.20
2022-08-08T05:23:46.101Z,25.20
2022-08-08T05:26:46.160Z,25.20
2022-08-08T05:29:42.329Z,25.20
2022-08-08T05:32:37.066Z,25.20
2022-08-08T05:35:32.174Z,25.20
2022-08-08T05:38:31.672Z,25.20
2022-08-08T05:41:27.847Z,25.20
2022-08-08T05:44:26.743Z,25.20
2022-08-08T05:47:24.705Z,25.20
2022-08-08T05:50:26.605Z,25.20
2022-08-08T05:54:06.299Z,25.20
2022-08-08T05:56:42.407Z,25.20
2022-08-08T06:00:01.056Z,25.30
2022-08-08T06:03:17.567Z,25.20
2022-08-08T06:06:23.486Z,25.20
2022-08-08T06:10:00.618Z,25.20
2022-08-08T06:12:43.433Z,25.20
2022-08-08T06:15:51.167Z,25.20
2022-08-08T06:18:50.631Z,25.20
2022-08-08T06:21:56.794Z,25.20
2022-08-08T06:24:53.465Z,25.20
2022-08-08T06:27:52.339Z,25.20
2022-08-08T06:30:46.337Z,25.20
2022-08-08T06:34:25.544Z,25.20
2022-08-08T06:37:25.078Z,25.30
2022-08-08T06:40:19.835Z,25.20
2022-08-08T06:43:30.649Z,25.20
2022-08-08T06:46:29.988Z,25.20
2022-08-08T06:49:55.185Z,25.20
2022-08-08T06:52:39.532Z,25.20
2022-08-08T06:55:41.692Z,25.20
2022-08-08T06:58:35.903Z,25.30
2022-08-08T07:02:27.351Z,25.20
2022-08-08T07:04:55.264Z,25.20
2022-08-08T07:08:04.595Z,25.20
2022-08-08T07:11:01.191Z,25.20
2022-08-08T07:14:01.762Z,25.20
2022-08-08T07:17:08.947Z,25.30
2022-08-08T07:20:06.088Z,25.30
2022-08-08T07:23:04.665Z,25.30
2022-08-08T07:26:03.696Z,25.30
2022-08-08T07:28:59.343Z,25.30
2022-08-08T07:31:59.770Z,25.30
2022-08-08T07:35:00.565Z,25.30
2022-08-08T07:38:04.414Z,25.40
2022-08-08T07:41:05.125Z,25.40
2022-08-08T07:43:59.945Z,25.40
2022-08-08T07:46:53.772Z,25.40
2022-08-08T07:49:49.343Z,25.40
2022-08-08T07:52:47.713Z,25.40
2022-08-08T07:55:41.015Z,25.40
2022-08-08T07:58:42.140Z,25.50
2022-08-08T08:02:32.890Z,25.50
2022-08-08T08:04:56.789Z,25.50
2022-08-08T08:07:55.229Z,25.50
2022-08-08T08:10:53.092Z,25.60
2022-08-08T08:14:07.891Z,25.60
2022-08-08T08:17:02.439Z,25.60
2022-08-08T08:19:59.997Z,25.60
2022-08-08T08:22:53.541Z,25.60
2022-08-08T08:25:52.976Z,25.70
2022-08-08T08:28:52.033Z,25.70
2022-08-08T08:31:46.062Z,25.70
2022-08-08T08:34:52.201Z,25.70
2022-08-08T08:38:05.843Z,25.80
2022-08-08T08:40:59.419Z,25.80
2022-08-08T08:44:13.861Z,25.80
2022-08-08T08:47:08.120Z,25.80
2022-08-08T08:50:01.857Z,25.80
2022-08-08T08:53:04.744Z,25.90
2022-08-08T08:56:13.665Z,25.90
2022-08-08T08:59:09.156Z,25.90
2022-08-08T09:02:18.043Z,25.90
2022-08-08T09:05:48.729Z,26.00
2022-08-08T09:08:29.580Z,26.00
2022-08-08T09:11:23.831Z,26.00
2022-08-08T09:14:23.166Z,26.10
2022-08-08T09:17:31.577Z,26.10
2022-08-08T09:22:01.319Z,26.10
2022-08-08T09:23:49.688Z,26.10
2022-08-08T09:26:49.844Z,26.20
2022-08-08T09:29:52.911Z,26.10
2022-08-08T09:33:13.039Z,26.20
2022-08-08T09:36:07.886Z,26.20
2022-08-08T09:39:15.635Z,26.20
2022-08-08T09:42:22.131Z,26.30
2022-08-08T09:46:01.853Z,26.30
2022-08-08T09:48:38.903Z,26.30
2022-08-08T09:52:01.696Z,26.50
2022-08-08T09:54:54.039Z,26.60
2022-08-08T09:57:55.869Z,26.70
2022-08-08T10:00:57.118Z,26.70
2022-08-08T10:03:56.301Z,26.70
2022-08-08T10:06:53.900Z,26.70
2022-08-08T10:10:00.535Z,26.70
2022-08-08T10:12:57.329Z,26.70
2022-08-08T10:16:01.416Z,26.80
2022-08-08T10:19:04.758Z,26.80
2022-08-08T10:21:57.511Z,26.80
2022-08-08T10:24:53.110Z,26.90
2022-08-08T10:27:48.131Z,26.90
2022-08-08T10:31:01.167Z,26.80
2022-08-08T10:34:19.660Z,26.80
2022-08-08T10:37:13.922Z,26.90
2022-08-08T10:40:16.213Z,26.90
2022-08-08T10:43:11.992Z,26.90
2022-08-08T10:46:30.153Z,26.90
2022-08-08T10:49:26.970Z,26.90
2022-08-08T10:52:40.732Z,26.90
2022-08-08T10:55:46.346Z,26.90
2022-08-08T10:58:54.700Z,27.00
2022-08-08T11:01:54.978Z,27.00
2022-08-08T11:04:53.652Z,27.00
2022-08-08T11:08:37.378Z,27.00
2022-08-08T11:11:08.310Z,27.10
2022-08-08T11:14:17.780Z,27.10
2022-08-08T11:17:12.496Z,27.10
2022-08-08T11:20:12.445Z,27.10
2022-08-08T11:23:06.499Z,27.10
2022-08-08T11:26:00.524Z,27.00
2022-08-08T11:28:57.560Z,27.10
2022-08-08T11:31:54.081Z,27.10
2022-08-08T11:35:10.538Z,27.00
2022-08-08T11:38:38.798Z,27.00
2022-08-08T11:41:33.569Z,27.00
2022-08-08T11:44:29.674Z,27.00
2022-08-08T11:47:24.159Z,27.00
2022-08-08T11:50:35.766Z,27.00
2022-08-08T11:53:30.120Z,27.10
2022-08-08T11:56:43.929Z,27.10
2022-08-08T12:00:00.194Z,27.10
2022-08-08T12:02:57.360Z,27.00
2022-08-08T12:05:52.839Z,27.00
2022-08-08T12:08:46.550Z,27.00
2022-08-08T12:11:40.906Z,27.00
2022-08-08T12:14:34.964Z,27.00
2022-08-08T12:17:36.235Z,26.90
2022-08-08T12:20:38.812Z,26.90
2022-08-08T12:23:42.697Z,26.90
2022-08-08T12:26:42.636Z,26.90
2022-08-08T12:29:41.999Z,26.90
2022-08-08T12:32:44.083Z,26.80
2022-08-08T12:35:40.721Z,26.80
2022-08-08T12:38:51.321Z,26.80
2022-08-08T12:42:01.975Z,26.80
2022-08-08T12:45:53.804Z,26.80
2022-08-08T12:48:37.350Z,26.80
2022-08-08T12:51:41.452Z,26.80
2022-08-08T12:54:45.895Z,26.70
2022-08-08T12:57:52.842Z,26.70
2022-08-08T13:00:51.770Z,26.70
2022-08-08T13:03:51.951Z,26.70
2022-08-08T13:07:00.761Z,26.70
2022-08-08T13:10:05.615Z,26.60
2022-08-08T13:13:05.509Z,26.60
2022-08-08T13:16:18.875Z,26.60
2022-08-08T13:19:14.089Z,26.60
2022-08-08T13:22:11.463Z,26.60
2022-08-08T13:25:14.130Z,26.60
2022-08-08T13:28:07.810Z,26.60
2022-08-08T13:31:03.827Z,26.60
2022-08-08T13:33:56.918Z,26.60
2022-08-08T13:36:51.690Z,26.60
2022-08-08T13:39:44.680Z,26.50
2022-08-08T13:42:43.854Z,26.50
2022-08-08T13:45:37.638Z,26.50
2022-08-08T13:48:30.888Z,26.50
2022-08-08T13:51:37.559Z,26.50
2022-08-08T13:54:38.524Z,26.50
2022-08-08T13:57:46.275Z,26.50
2022-08-08T14:00:58.536Z,26.50
2022-08-08T14:03:56.410Z,26.40
2022-08-08T14:06:49.958Z,26.50
2022-08-08T14:10:05.004Z,26.50
2022-08-08T14:12:59.959Z,26.40
2022-08-08T14:16:02.639Z,26.40
2022-08-08T14:18:57.650Z,26.40
2022-08-08T14:21:54.155Z,26.50
2022-08-08T14:24:50.173Z,26.40
2022-08-08T14:28:00.229Z,26.40
2022-08-08T14:31:07.755Z,26.40
2022-08-08T14:34:03.376Z,26.40
2022-08-08T14:36:58.932Z,26.40
2022-08-08T14:39:54.764Z,26.40
2022-08-08T14:43:01.828Z,26.40
2022-08-08T14:46:17.172Z,26.40
2022-08-08T14:49:32.186Z,26.40
2022-08-08T14:52:26.788Z,26.40
2022-08-08T14:55:22.416Z,26.40
2022-08-08T14:58:28.740Z,26.40
2022-08-08T15:01:37.743Z,26.40
2022-08-08T15:04:33.905Z,26.40
2022-08-08T15:07:39.565Z,26.40
2022-08-08T15:10:34.537Z,26.40
2022-08-08T15:13:39.805Z,26.40
2022-08-08T15:16:35.990Z,26.40
2022-08-08T15:19:28.981Z,26.40
2022-08-08T15:22:23.722Z,26.40
2022-08-08T15:25:17.648Z,26.40
2022-08-08T15:28:33.413Z,26.40
2022-08-08T15:32:03.867Z,26.40
2022-08-08T15:34:42.670Z,26.40
2022-08-08T15:37:36.048Z,26.40
2022-08-08T15:40:28.835Z,26.40
2022-08-08T15:43:35.138Z,26.40
2022-08-08T15:46:35.140Z,26.40
2022-08-08T15:49:29.461Z,26.40
2022-08-08T15:52:25.277Z,26.40
2022-08-08T15:55:18.740Z,26.40
2022-08-08T15:58:13.771Z,26.30
2022-08-08T16:01:07.511Z,26.40
2022-08-08T16:04:00.609Z,26.40
2022-08-08T16:06:54.690Z,26.40
2022-08-08T16:13:14.104Z,26.40
2022-08-08T16:13:27.804Z,26.40
2022-08-08T16:16:18.616Z,26.40
2022-08-08T16:19:11.953Z,26.30
2022-08-08T16:22:07.684Z,26.30
2022-08-08T16:25:05.994Z,26.40
2022-08-08T16:27:59.088Z,26.40
2022-08-08T16:30:52.081Z,26.30
2022-08-08T16:33:51.018Z,26.30
2022-08-08T16:36:51.917Z,26.30
2022-08-08T16:40:00.324Z,26.30
2022-08-08T16:42:57.181Z,26.30
2022-08-08T16:46:36.992Z,26.30
2022-08-08T16:49:02.863Z,26.30
2022-08-08T16:55:18.135Z,26.30
2022-08-08T16:55:54.544Z,26.30
2022-08-08T16:58:32.633Z,26.30
2022-08-08T17:01:27.868Z,26.30
2022-08-08T17:04:29.078Z,26.30
2022-08-08T17:07:24.624Z,26.30
2022-08-08T17:10:19.982Z,26.30
2022-08-08T17:13:13.031Z,26.40
2022-08-08T17:16:15.336Z,26.40
2022-08-08T17:19:09.216Z,26.40
2022-08-08T17:22:06.735Z,26.40
2022-08-08T17:25:02.116Z,26.40
2022-08-08T17:27:56.207Z,26.40
2022-08-08T17:30:52.208Z,26.40
2022-08-08T17:34:53.418Z,26.40
2022-08-08T17:37:03.415Z,26.40
2022-08-08T17:40:10.411Z,26.40
2022-08-08T17:43:07.125Z,26.40
2022-08-08T17:46:06.594Z,26.40
2022-08-08T17:49:02.629Z,26.40
2022-08-08T17:51:56.156Z,26.40
2022-08-08T17:54:56.166Z,26.40
2022-08-08T17:57:50.323Z,26.40
2022-08-08T18:00:47.607Z,26.40
2022-08-08T18:03:49.877Z,26.40
2022-08-08T18:06:44.892Z,26.30
2022-08-08T18:09:38.846Z,26.40
2022-08-08T18:12:32.512Z,26.40
2022-08-08T18:15:25.949Z,26.40
2022-08-08T18:18:28.741Z,26.30
2022-08-08T18:21:59.026Z,26.30
2022-08-08T18:24:41.665Z,26.30
2022-08-08T18:27:43.277Z,26.30
2022-08-08T18:30:39.224Z,26.30
2022-08-08T18:34:10.271Z,26.30
2022-08-08T18:36:48.125Z,26.30
2022-08-08T18:39:42.581Z,26.30
2022-08-08T18:42:36.594Z,26.30
2022-08-08T18:46:00.726Z,26.30
2022-08-08T18:48:44.980Z,26.30
2022-08-08T18:51:52.569Z,26.30
2022-08-08T18:54:59.740Z,26.30
2022-08-08T18:58:03.185Z,26.30
2022-08-08T19:00:57.123Z,26.30
2022-08-08T19:04:05.185Z,26.30
2022-08-08T19:07:03.855Z,26.30
2022-08-08T19:10:15.614Z,26.30
2022-08-08T19:13:21.758Z,26.20
2022-08-08T19:16:19.085Z,26.30
2022-08-08T19:19:14.253Z,26.30
2022-08-08T19:22:07.909Z,26.30
2022-08-08T19:25:44.260Z,26.30
2022-08-08T19:28:20.268Z,26.20
2022-08-08T19:31:17.017Z,26.30
2022-08-08T19:34:35.915Z,26.20
2022-08-08T19:37:43.135Z,26.20
2022-08-08T19:40:38.259Z,26.20
2022-08-08T19:43:34.096Z,26.20
2022-08-08T19:46:47.215Z,26.20
2022-08-08T19:49:40.043Z,26.20
2022-08-08T19:52:37.492Z,26.20
2022-08-08T19:55:33.964Z,26.20
2022-08-08T19:58:28.477Z,26.20
2022-08-08T20:01:50.251Z,26.20
2022-08-08T20:04:37.863Z,26.20
2022-08-08T20:08:28.581Z,26.10
2022-08-08T20:10:44.382Z,26.10
2022-08-08T20:14:13.200Z,26.10
2022-08-08T20:16:53.087Z,26.10
2022-08-08T20:19:46.093Z,26.10
2022-08-08T20:22:41.851Z,26.10
2022-08-08T20:25:35.448Z,26.10
2022-08-08T20:28:32.793Z,26.10
2022-08-08T20:31:46.884Z,26.10
2022-08-08T20:34:47.801Z,26.10
2022-08-08T20:37:52.836Z,26.10
2022-08-08T20:40:51.229Z,26.10
2022-08-08T20:43:49.522Z,26.10
2022-08-08T20:46:49.082Z,26.10
2022-08-08T20:49:46.971Z,26.10
2022-08-08T20:52:44.922Z,26.10
2022-08-08T20:55:42.389Z,26.10
2022-08-08T20:58:36.394Z,26.10
2022-08-08T21:02:05.617Z,26.00
2022-08-08T21:04:50.258Z,26.10
2022-08-08T21:07:47.349Z,26.10
2022-08-08T21:10:58.225Z,25.90
2022-08-08T21:13:52.572Z,25.90
2022-08-08T21:16:45.943Z,26.00
2022-08-08T21:19:45.451Z,25.90
2022-08-08T21:22:40.627Z,26.00
2022-08-08T21:25:36.438Z,26.00
2022-08-08T21:28:33.633Z,26.00
2022-08-08T21:31:57.652Z,25.90
2022-08-08T21:34:49.671Z,26.00
2022-08-08T21:37:54.395Z,25.90
2022-08-08T21:40:56.094Z,25.90
2022-08-08T21:43:49.988Z,25.90
2022-08-08T21:48:06.097Z,25.90
2022-08-08T21:49:59.755Z,25.90
2022-08-08T21:54:22.983Z,25.90
2022-08-08T21:56:26.890Z,25.90
2022-08-08T21:59:21.268Z,25.90
2022-08-08T22:02:19.633Z,25.90
2022-08-08T22:05:17.434Z,25.90
2022-08-08T22:08:12.553Z,25.90
2022-08-08T22:11:45.110Z,25.90
2022-08-08T22:14:22.502Z,25.90
2022-08-08T22:17:19.155Z,25.90
2022-08-08T22:20:18.777Z,25.90
2022-08-08T22:23:19.238Z,25.90
2022-08-08T22:26:27.982Z,25.90
2022-08-08T22:30:02.248Z,25.90
2022-08-08T22:32:36.482Z,25.90
2022-08-08T22:36:04.529Z,25.90
2022-08-08T22:38:48.459Z,25.90
2022-08-08T22:41:42.274Z,25.90
2022-08-08T22:44:36.754Z,25.90
2022-08-08T22:47:37.556Z,25.90
2022-08-08T22:50:34.585Z,25.80
2022-08-08T22:54:32.897Z,25.90
2022-08-08T22:56:42.380Z,25.90
2022-08-08T22:59:48.494Z,25.90
2022-08-08T23:02:52.155Z,25.80
2022-08-08T23:05:50.365Z,25.90
2022-08-08T23:08:54.732Z,25.90
2022-08-08T23:12:18.415Z,25.90
2022-08-08T23:15:10.600Z,25.90
2022-08-08T23:18:21.908Z,25.90
2022-08-08T23:21:16.421Z,25.90
2022-08-08T23:24:09.274Z,25.80
2022-08-08T23:27:03.990Z,25.90
2022-08-08T23:29:57.338Z,25.80
2022-08-08T23:32:50.467Z,25.90
2022-08-08T23:36:06.779Z,25.80
2022-08-08T23:38:57.865Z,25.80
2022-08-08T23:41:51.694Z,25.90
2022-08-08T23:44:47.011Z,25.80
2022-08-08T23:49:06.165Z,25.80
2022-08-08T23:50:57.169Z,25.80
2022-08-08T23:54:04.819Z,25.90
2022-08-08T23:57:15.369Z,25.80
